SIA324A WSSS-EHAM
Flight info
| Callsign | SIA324A |
|---|---|
| Flight time | N/A |
| Altitude | 34000 |
| Route | VMR6A VMR B469 VPK M751 VKB A334 HTY W14 PUT L515 OBMOG M770 KAKID M875 DI N644 LEMOD A909 NINOP B475 DOLOS B449 MAMED P130 BODKA M747 SULEL N449 TELLI DCT INDUR UN161 ERZ UL746 ODERO DCT OPT DCT IRLOX DCT EMPOS DCT FOGRE DCT PEPIK DCT ELMEK DCT NAVEK DCT VEXIL DCT KATCE DCT APEBE DCT NORKU |
| Aircraft | A359/H-SDE1E2E3GHIJ1J2J3J5M1P2RWXYZ/LB1D1 |
Departure
| Time | 2026-05-05 16:16 |
|---|---|
| Airport | Singapore Changi Airport (WSSS) |
Arrival
| Time | N/A |
|---|---|
| Airport | Amsterdam Airport Schiphol (EHAM) |
| Time | Latitude | Longitude | Altitude | Speed | Heading |
|---|---|---|---|---|---|
| 2026-05-05 15:06 | 1.35556 | 103.98424 | 30 ft | 0 kts | 135° |
| 2026-05-05 16:04 | 1.35570 | 103.98409 | 29 ft | 4 kts | 135° |
| 2026-05-05 16:05 | 1.35589 | 103.98390 | 29 ft | 4 kts | 130° |
| 2026-05-05 16:05 | 1.35606 | 103.98370 | 30 ft | 4 kts | 141° |
| 2026-05-05 16:05 | 1.35627 | 103.98360 | 30 ft | 4 kts | 170° |
| 2026-05-05 16:05 | 1.35652 | 103.98362 | 30 ft | 4 kts | 207° |
| 2026-05-05 16:06 | 1.35668 | 103.98370 | 30 ft | 1 kts | 202° |
| 2026-05-05 16:06 | 1.35670 | 103.98371 | 30 ft | 0 kts | 202° |
| 2026-05-05 16:09 | 1.35663 | 103.98368 | 30 ft | 3 kts | 203° |
| 2026-05-05 16:09 | 1.35643 | 103.98360 | 30 ft | 4 kts | 203° |
| 2026-05-05 16:10 | 1.35631 | 103.98354 | 30 ft | 1 kts | 203° |
| 2026-05-05 16:10 | 1.35611 | 103.98346 | 30 ft | 6 kts | 203° |
| 2026-05-05 16:10 | 1.35572 | 103.98329 | 30 ft | 6 kts | 203° |
| 2026-05-05 16:10 | 1.35529 | 103.98311 | 30 ft | 7 kts | 203° |
| 2026-05-05 16:11 | 1.35481 | 103.98291 | 30 ft | 8 kts | 203° |
| 2026-05-05 16:11 | 1.35315 | 103.98221 | 30 ft | 12 kts | 202° |
| 2026-05-05 16:12 | 1.35225 | 103.98183 | 30 ft | 15 kts | 203° |
| 2026-05-05 16:12 | 1.35034 | 103.98102 | 30 ft | 15 kts | 203° |
| 2026-05-05 16:13 | 1.34825 | 103.97982 | 30 ft | 7 kts | 277° |
| 2026-05-05 16:13 | 1.34839 | 103.97936 | 30 ft | 7 kts | 292° |
| 2026-05-05 16:13 | 1.34859 | 103.97888 | 30 ft | 8 kts | 292° |
| 2026-05-05 16:14 | 1.34906 | 103.97783 | 30 ft | 8 kts | 304° |
| 2026-05-05 16:14 | 1.34960 | 103.97781 | 30 ft | 0 kts | 21° |
| 2026-05-05 16:15 | 1.35003 | 103.97797 | 30 ft | 25 kts | 22° |
| 2026-05-05 16:15 | 1.36050 | 103.98238 | 30 ft | 132 kts | 23° |
| 2026-05-05 16:16 | 1.38191 | 103.99141 | 492 ft | 179 kts | 22° |
| 2026-05-05 16:16 | 1.40472 | 104.00100 | 1686 ft | 179 kts | 22° |
| 2026-05-05 16:17 | 1.42960 | 104.01150 | 2069 ft | 208 kts | 21° |
| 2026-05-05 16:17 | 1.44430 | 104.01440 | 2175 ft | 227 kts | 1° |
| 2026-05-05 16:18 | 1.47794 | 104.01095 | 2624 ft | 254 kts | 352° |
| 2026-05-05 16:18 | 1.49523 | 104.00827 | 3257 ft | 250 kts | 353° |
| 2026-05-05 16:18 | 1.52965 | 104.00306 | 4283 ft | 252 kts | 352° |
| 2026-05-05 16:19 | 1.54740 | 104.00040 | 4576 ft | 265 kts | 352° |
| 2026-05-05 16:19 | 1.56561 | 103.99768 | 4935 ft | 271 kts | 351° |
| 2026-05-05 16:19 | 1.60356 | 103.99175 | 5879 ft | 277 kts | 351° |
| 2026-05-05 16:20 | 1.64179 | 103.98592 | 6838 ft | 282 kts | 351° |
| 2026-05-05 16:20 | 1.68088 | 103.97977 | 7910 ft | 285 kts | 351° |
| 2026-05-05 16:21 | 1.72042 | 103.97376 | 8794 ft | 290 kts | 351° |
| 2026-05-05 16:22 | 1.78108 | 103.96439 | 10124 ft | 298 kts | 351° |
| 2026-05-05 16:22 | 1.82283 | 103.95802 | 10729 ft | 314 kts | 351° |
| 2026-05-05 16:23 | 1.86763 | 103.95119 | 11100 ft | 337 kts | 352° |
| 2026-05-05 16:23 | 1.89123 | 103.94766 | 11294 ft | 348 kts | 352° |
| 2026-05-05 16:23 | 1.94042 | 103.94024 | 11651 ft | 368 kts | 352° |
| 2026-05-05 16:24 | 1.96607 | 103.93631 | 11828 ft | 377 kts | 352° |
| 2026-05-05 16:24 | 1.99230 | 103.93228 | 11997 ft | 386 kts | 352° |
| 2026-05-05 16:24 | 2.04612 | 103.92407 | 12548 ft | 395 kts | 352° |
| 2026-05-05 16:25 | 2.07341 | 103.91985 | 12885 ft | 398 kts | 352° |
| 2026-05-05 16:25 | 2.12839 | 103.91136 | 13598 ft | 402 kts | 352° |
| 2026-05-05 16:25 | 2.15609 | 103.90714 | 13932 ft | 403 kts | 352° |
| 2026-05-05 16:26 | 2.21186 | 103.89876 | 14563 ft | 407 kts | 352° |
| 2026-05-05 16:26 | 2.26816 | 103.89010 | 15205 ft | 411 kts | 352° |
| 2026-05-05 16:27 | 2.29658 | 103.88575 | 15549 ft | 413 kts | 352° |
| 2026-05-05 16:27 | 2.32508 | 103.88141 | 15906 ft | 415 kts | 353° |
| 2026-05-05 16:27 | 2.35369 | 103.87705 | 16255 ft | 417 kts | 353° |
| 2026-05-05 16:27 | 2.38229 | 103.87196 | 16562 ft | 419 kts | 347° |
| 2026-05-05 16:28 | 2.41016 | 103.86300 | 16826 ft | 422 kts | 341° |
| 2026-05-05 16:28 | 2.43740 | 103.85176 | 17080 ft | 425 kts | 338° |
| 2026-05-05 16:28 | 2.46427 | 103.83932 | 17360 ft | 427 kts | 336° |
| 2026-05-05 16:28 | 2.49109 | 103.82636 | 17669 ft | 428 kts | 335° |
| 2026-05-05 16:29 | 2.51792 | 103.81329 | 17903 ft | 431 kts | 336° |
| 2026-05-05 16:29 | 2.54505 | 103.80034 | 18171 ft | 432 kts | 336° |
| 2026-05-05 16:29 | 2.57229 | 103.78759 | 18464 ft | 434 kts | 336° |
| 2026-05-05 16:29 | 2.59976 | 103.77489 | 18730 ft | 436 kts | 337° |
| 2026-05-05 16:30 | 2.62702 | 103.76241 | 18967 ft | 437 kts | 337° |
| 2026-05-05 16:30 | 2.65475 | 103.74977 | 19174 ft | 440 kts | 337° |
| 2026-05-05 16:30 | 2.68264 | 103.73708 | 19422 ft | 441 kts | 337° |
| 2026-05-05 16:30 | 2.71060 | 103.72428 | 19639 ft | 443 kts | 337° |
| 2026-05-05 16:31 | 2.73871 | 103.71141 | 19860 ft | 446 kts | 337° |
| 2026-05-05 16:31 | 2.76702 | 103.69862 | 20102 ft | 447 kts | 337° |
| 2026-05-05 16:31 | 2.79545 | 103.68588 | 20366 ft | 449 kts | 338° |
| 2026-05-05 16:31 | 2.82402 | 103.67315 | 20608 ft | 450 kts | 338° |
| 2026-05-05 16:32 | 2.85271 | 103.66039 | 20823 ft | 452 kts | 338° |
| 2026-05-05 16:32 | 2.88155 | 103.64756 | 21039 ft | 454 kts | 338° |
| 2026-05-05 16:32 | 2.91049 | 103.63468 | 21233 ft | 456 kts | 338° |
| 2026-05-05 16:32 | 2.93954 | 103.62179 | 21418 ft | 458 kts | 338° |
| 2026-05-05 16:33 | 2.96866 | 103.60884 | 21632 ft | 459 kts | 338° |
| 2026-05-05 16:33 | 2.99794 | 103.59580 | 21794 ft | 462 kts | 338° |
| 2026-05-05 16:33 | 3.02738 | 103.58272 | 22029 ft | 463 kts | 338° |
| 2026-05-05 16:33 | 3.05683 | 103.56962 | 22215 ft | 465 kts | 338° |
| 2026-05-05 16:34 | 3.08646 | 103.55642 | 22402 ft | 467 kts | 337° |
| 2026-05-05 16:34 | 3.11609 | 103.54318 | 22579 ft | 467 kts | 337° |
| 2026-05-05 16:34 | 3.14584 | 103.52989 | 22717 ft | 470 kts | 337° |
| 2026-05-05 16:34 | 3.17574 | 103.51660 | 22896 ft | 471 kts | 338° |
| 2026-05-05 16:35 | 3.20571 | 103.50321 | 23089 ft | 472 kts | 337° |
| 2026-05-05 16:35 | 3.23575 | 103.48971 | 23238 ft | 474 kts | 337° |
| 2026-05-05 16:35 | 3.26585 | 103.47616 | 23406 ft | 476 kts | 337° |
| 2026-05-05 16:35 | 3.29609 | 103.46253 | 23573 ft | 477 kts | 337° |
| 2026-05-05 16:36 | 3.32641 | 103.44887 | 23731 ft | 478 kts | 337° |
| 2026-05-05 16:36 | 3.35672 | 103.43524 | 23849 ft | 479 kts | 337° |
| 2026-05-05 16:36 | 3.38724 | 103.42152 | 24003 ft | 481 kts | 337° |
| 2026-05-05 16:36 | 3.41797 | 103.40814 | 24188 ft | 482 kts | 339° |
| 2026-05-05 16:37 | 3.44909 | 103.39560 | 24340 ft | 483 kts | 340° |
| 2026-05-05 16:37 | 3.48047 | 103.38339 | 24483 ft | 484 kts | 340° |
| 2026-05-05 16:37 | 3.51187 | 103.37125 | 24652 ft | 483 kts | 340° |
| 2026-05-05 16:37 | 3.54332 | 103.35904 | 24750 ft | 486 kts | 340° |
| 2026-05-05 16:38 | 3.57489 | 103.34672 | 24898 ft | 487 kts | 340° |
| 2026-05-05 16:38 | 3.60607 | 103.33447 | 25057 ft | 488 kts | 340° |
| 2026-05-05 16:38 | 3.63769 | 103.32194 | 25229 ft | 489 kts | 340° |
| 2026-05-05 16:38 | 3.66932 | 103.30933 | 25389 ft | 490 kts | 340° |
| 2026-05-05 16:39 | 3.70102 | 103.29670 | 25573 ft | 490 kts | 340° |
| 2026-05-05 16:39 | 3.73282 | 103.28405 | 25694 ft | 492 kts | 339° |
| 2026-05-05 16:39 | 3.76462 | 103.27137 | 25836 ft | 493 kts | 339° |
| 2026-05-05 16:39 | 3.79655 | 103.25862 | 25986 ft | 494 kts | 339° |
| 2026-05-05 16:40 | 3.82853 | 103.24589 | 26134 ft | 495 kts | 340° |
| 2026-05-05 16:40 | 3.86056 | 103.23315 | 26284 ft | 496 kts | 339° |
| 2026-05-05 16:40 | 3.89266 | 103.22041 | 26443 ft | 497 kts | 339° |
| 2026-05-05 16:40 | 3.92486 | 103.20765 | 26586 ft | 498 kts | 340° |
| 2026-05-05 16:41 | 3.95709 | 103.19488 | 26747 ft | 499 kts | 339° |
| 2026-05-05 16:41 | 3.98936 | 103.18208 | 26883 ft | 500 kts | 339° |
| 2026-05-05 16:41 | 4.02171 | 103.16924 | 27028 ft | 500 kts | 339° |
| 2026-05-05 16:41 | 4.05408 | 103.15632 | 27189 ft | 501 kts | 339° |
| 2026-05-05 16:42 | 4.08649 | 103.14341 | 27334 ft | 502 kts | 339° |
| 2026-05-05 16:42 | 4.11898 | 103.13047 | 27475 ft | 503 kts | 339° |
| 2026-05-05 16:42 | 4.15147 | 103.11747 | 27624 ft | 503 kts | 339° |
| 2026-05-05 16:42 | 4.18405 | 103.10448 | 27750 ft | 505 kts | 339° |
| 2026-05-05 16:43 | 4.21676 | 103.09143 | 27915 ft | 505 kts | 339° |
| 2026-05-05 16:43 | 4.24948 | 103.07843 | 28061 ft | 507 kts | 339° |
| 2026-05-05 16:43 | 4.28230 | 103.06547 | 28209 ft | 507 kts | 339° |
| 2026-05-05 16:43 | 4.31513 | 103.05248 | 28357 ft | 508 kts | 339° |
| 2026-05-05 16:44 | 4.34800 | 103.03939 | 28504 ft | 509 kts | 339° |
| 2026-05-05 16:44 | 4.38091 | 103.02624 | 28620 ft | 510 kts | 339° |
| 2026-05-05 16:44 | 4.41387 | 103.01312 | 28726 ft | 510 kts | 339° |
| 2026-05-05 16:44 | 4.44694 | 103.00002 | 28846 ft | 511 kts | 339° |
| 2026-05-05 16:45 | 4.47997 | 102.98691 | 28948 ft | 512 kts | 339° |
| 2026-05-05 16:45 | 4.51312 | 102.97372 | 29052 ft | 513 kts | 339° |
| 2026-05-05 16:45 | 4.54630 | 102.96048 | 29157 ft | 514 kts | 339° |
| 2026-05-05 16:45 | 4.57955 | 102.94724 | 29323 ft | 514 kts | 339° |
| 2026-05-05 16:46 | 4.61270 | 102.93398 | 29455 ft | 514 kts | 339° |
| 2026-05-05 16:46 | 4.64598 | 102.92063 | 29546 ft | 515 kts | 339° |
| 2026-05-05 16:46 | 4.67931 | 102.90733 | 29650 ft | 516 kts | 339° |
| 2026-05-05 16:46 | 4.71270 | 102.89404 | 29772 ft | 516 kts | 339° |
| 2026-05-05 16:47 | 4.74608 | 102.88077 | 29879 ft | 517 kts | 339° |
| 2026-05-05 16:47 | 4.77947 | 102.86749 | 30014 ft | 516 kts | 339° |
| 2026-05-05 16:47 | 4.84627 | 102.84083 | 30288 ft | 516 kts | 339° |
| 2026-05-05 16:48 | 4.87961 | 102.82754 | 30471 ft | 515 kts | 339° |
| 2026-05-05 16:48 | 4.91293 | 102.81431 | 30599 ft | 515 kts | 339° |
| 2026-05-05 16:48 | 4.94619 | 102.80108 | 30758 ft | 515 kts | 339° |
| 2026-05-05 16:48 | 4.97947 | 102.78782 | 30914 ft | 515 kts | 339° |
| 2026-05-05 16:49 | 5.01279 | 102.77455 | 31077 ft | 515 kts | 338° |
| 2026-05-05 16:49 | 5.03476 | 102.76576 | 31206 ft | 514 kts | 339° |
| 2026-05-05 16:49 | 5.06796 | 102.75252 | 31436 ft | 513 kts | 338° |
| 2026-05-05 16:49 | 5.10104 | 102.73928 | 31584 ft | 512 kts | 339° |
| 2026-05-05 16:50 | 5.14533 | 102.72169 | 31744 ft | 513 kts | 339° |
| 2026-05-05 16:50 | 5.16727 | 102.71301 | 31864 ft | 512 kts | 339° |
| 2026-05-05 16:50 | 5.20036 | 102.69992 | 32026 ft | 511 kts | 339° |
| 2026-05-05 16:50 | 5.23347 | 102.68682 | 32173 ft | 511 kts | 339° |
| 2026-05-05 16:51 | 5.29956 | 102.66028 | 32379 ft | 512 kts | 338° |
| 2026-05-05 16:51 | 5.33248 | 102.64687 | 32521 ft | 512 kts | 338° |
| 2026-05-05 16:51 | 5.36554 | 102.63345 | 32681 ft | 510 kts | 338° |
| 2026-05-05 16:52 | 5.39852 | 102.62022 | 32809 ft | 511 kts | 339° |
| 2026-05-05 16:52 | 5.43151 | 102.60715 | 32964 ft | 510 kts | 339° |
| 2026-05-05 16:52 | 5.46452 | 102.59397 | 33128 ft | 509 kts | 339° |
| 2026-05-05 16:52 | 5.49745 | 102.58078 | 33217 ft | 510 kts | 339° |
| 2026-05-05 16:53 | 5.53043 | 102.56766 | 33324 ft | 510 kts | 339° |
| 2026-05-05 16:53 | 5.56343 | 102.55451 | 33451 ft | 510 kts | 339° |
| 2026-05-05 16:53 | 5.59639 | 102.54131 | 33579 ft | 510 kts | 338° |
| 2026-05-05 16:53 | 5.62931 | 102.52812 | 33739 ft | 510 kts | 338° |
| 2026-05-05 16:54 | 5.66226 | 102.51491 | 33870 ft | 510 kts | 338° |
| 2026-05-05 16:54 | 5.69531 | 102.50168 | 33885 ft | 514 kts | 338° |
| 2026-05-05 16:54 | 5.76197 | 102.47503 | 33886 ft | 515 kts | 338° |
| 2026-05-05 16:55 | 5.82862 | 102.44842 | 33894 ft | 516 kts | 339° |
| 2026-05-05 16:55 | 5.89533 | 102.42173 | 33885 ft | 516 kts | 338° |
| 2026-05-05 16:56 | 5.96202 | 102.39494 | 33884 ft | 516 kts | 338° |
| 2026-05-05 16:56 | 6.02869 | 102.36819 | 33895 ft | 515 kts | 339° |
| 2026-05-05 16:57 | 6.09481 | 102.34048 | 33885 ft | 516 kts | 333° |
| 2026-05-05 16:57 | 6.15287 | 102.29856 | 33885 ft | 516 kts | 314° |
| 2026-05-05 16:58 | 6.19336 | 102.23957 | 33893 ft | 515 kts | 294° |
| 2026-05-05 16:58 | 6.22112 | 102.17318 | 33891 ft | 515 kts | 291° |
| 2026-05-05 16:59 | 6.24687 | 102.10597 | 33893 ft | 515 kts | 290° |
| 2026-05-05 16:59 | 6.27263 | 102.03921 | 33885 ft | 515 kts | 291° |
| 2026-05-05 17:00 | 6.29946 | 101.97184 | 33884 ft | 515 kts | 291° |
| 2026-05-05 17:00 | 6.32641 | 101.90523 | 33888 ft | 514 kts | 292° |
| 2026-05-05 17:01 | 6.35324 | 101.83900 | 33890 ft | 516 kts | 291° |
| 2026-05-05 17:01 | 6.38023 | 101.77214 | 33885 ft | 515 kts | 291° |
| 2026-05-05 17:02 | 6.40719 | 101.70544 | 33885 ft | 514 kts | 291° |
| 2026-05-05 17:02 | 6.43382 | 101.63866 | 33885 ft | 515 kts | 291° |
| 2026-05-05 17:03 | 6.46068 | 101.57145 | 33885 ft | 514 kts | 291° |
| 2026-05-05 17:03 | 6.48729 | 101.50519 | 33886 ft | 515 kts | 292° |
| 2026-05-05 17:04 | 6.51416 | 101.43853 | 33889 ft | 514 kts | 292° |
| 2026-05-05 17:04 | 6.54094 | 101.37176 | 33886 ft | 515 kts | 291° |
| 2026-05-05 17:05 | 6.56770 | 101.30496 | 33885 ft | 515 kts | 292° |
| 2026-05-05 17:05 | 6.59437 | 101.23830 | 33891 ft | 513 kts | 291° |
| 2026-05-05 17:06 | 6.62109 | 101.17156 | 33885 ft | 515 kts | 292° |
| 2026-05-05 17:06 | 6.64775 | 101.10486 | 33893 ft | 514 kts | 292° |
| 2026-05-05 17:07 | 6.67442 | 101.03819 | 33885 ft | 513 kts | 292° |
| 2026-05-05 17:07 | 6.70111 | 100.97174 | 33886 ft | 513 kts | 292° |
| 2026-05-05 17:08 | 6.72771 | 100.90507 | 33885 ft | 513 kts | 292° |
| 2026-05-05 17:08 | 6.75432 | 100.83847 | 33884 ft | 513 kts | 291° |
| 2026-05-05 17:09 | 6.78089 | 100.77183 | 33885 ft | 513 kts | 292° |
| 2026-05-05 17:09 | 6.80751 | 100.70530 | 33885 ft | 512 kts | 292° |
| 2026-05-05 17:10 | 6.83407 | 100.63866 | 33886 ft | 513 kts | 292° |
| 2026-05-05 17:10 | 6.86069 | 100.57209 | 33884 ft | 513 kts | 292° |
| 2026-05-05 17:11 | 6.88729 | 100.50548 | 33893 ft | 513 kts | 291° |
| 2026-05-05 17:11 | 6.91387 | 100.43877 | 33885 ft | 513 kts | 292° |
| 2026-05-05 17:12 | 6.94558 | 100.37468 | 33892 ft | 512 kts | 304° |
| 2026-05-05 17:12 | 6.98716 | 100.31653 | 33881 ft | 512 kts | 307° |
| 2026-05-05 17:13 | 7.03043 | 100.25970 | 33879 ft | 511 kts | 308° |
| 2026-05-05 17:13 | 7.07351 | 100.20326 | 33878 ft | 512 kts | 308° |
| 2026-05-05 17:14 | 7.11658 | 100.14640 | 33879 ft | 510 kts | 308° |
| 2026-05-05 17:14 | 7.15967 | 100.08947 | 33868 ft | 511 kts | 307° |
| 2026-05-05 17:15 | 7.20267 | 100.03263 | 33867 ft | 510 kts | 307° |
| 2026-05-05 17:15 | 7.24548 | 99.97573 | 33859 ft | 510 kts | 308° |
| 2026-05-05 17:16 | 7.28834 | 99.91884 | 33849 ft | 509 kts | 308° |
| 2026-05-05 17:16 | 7.33122 | 99.86201 | 33848 ft | 509 kts | 308° |
| 2026-05-05 17:17 | 7.37397 | 99.80517 | 33842 ft | 510 kts | 308° |
| 2026-05-05 17:17 | 7.41687 | 99.74833 | 33834 ft | 510 kts | 308° |
| 2026-05-05 17:18 | 7.45983 | 99.69152 | 33831 ft | 508 kts | 308° |
| 2026-05-05 17:18 | 7.50187 | 99.63413 | 33829 ft | 510 kts | 303° |
| 2026-05-05 17:19 | 7.53498 | 99.57094 | 33830 ft | 511 kts | 296° |
| 2026-05-05 17:19 | 7.56507 | 99.50608 | 33830 ft | 511 kts | 295° |
| 2026-05-05 17:20 | 7.59461 | 99.44086 | 33830 ft | 511 kts | 295° |
| 2026-05-05 17:20 | 7.62424 | 99.37574 | 33836 ft | 512 kts | 296° |
| 2026-05-05 17:21 | 7.65406 | 99.31075 | 33842 ft | 511 kts | 295° |
| 2026-05-05 17:22 | 7.69870 | 99.21347 | 33851 ft | 512 kts | 296° |
| 2026-05-05 17:22 | 7.72877 | 99.14848 | 33860 ft | 511 kts | 296° |
| 2026-05-05 17:23 | 7.75874 | 99.08342 | 33870 ft | 511 kts | 295° |
| 2026-05-05 17:23 | 7.78857 | 99.01836 | 33870 ft | 512 kts | 296° |
| 2026-05-05 17:24 | 7.81846 | 98.95312 | 33878 ft | 512 kts | 296° |
| 2026-05-05 17:24 | 7.84832 | 98.88781 | 33878 ft | 513 kts | 296° |
| 2026-05-05 17:25 | 7.87836 | 98.82248 | 33878 ft | 513 kts | 296° |
| 2026-05-05 17:25 | 7.90817 | 98.75705 | 33879 ft | 514 kts | 296° |
| 2026-05-05 17:26 | 7.93818 | 98.69160 | 33878 ft | 514 kts | 296° |
| 2026-05-05 17:26 | 7.96816 | 98.62612 | 33878 ft | 514 kts | 295° |
| 2026-05-05 17:27 | 7.99816 | 98.56055 | 33878 ft | 514 kts | 296° |
| 2026-05-05 17:27 | 8.02762 | 98.49613 | 33878 ft | 514 kts | 296° |
| 2026-05-05 17:28 | 8.05792 | 98.43070 | 33883 ft | 514 kts | 296° |
| 2026-05-05 17:28 | 8.08844 | 98.36597 | 33902 ft | 514 kts | 298° |
| 2026-05-05 17:29 | 8.13084 | 98.30847 | 33883 ft | 509 kts | 318° |
| 2026-05-05 17:29 | 8.18884 | 98.26825 | 33885 ft | 506 kts | 333° |
| 2026-05-05 17:30 | 8.25175 | 98.23620 | 33893 ft | 507 kts | 335° |
| 2026-05-05 17:30 | 8.31523 | 98.20541 | 33887 ft | 504 kts | 336° |
| 2026-05-05 17:31 | 8.37850 | 98.17422 | 33893 ft | 507 kts | 335° |
| 2026-05-05 17:31 | 8.44180 | 98.14249 | 33872 ft | 507 kts | 336° |
| 2026-05-05 17:32 | 8.50498 | 98.11063 | 33891 ft | 508 kts | 334° |
| 2026-05-05 17:32 | 8.56810 | 98.07885 | 33886 ft | 507 kts | 335° |
| 2026-05-05 17:33 | 8.63123 | 98.04701 | 33889 ft | 507 kts | 334° |
| 2026-05-05 17:33 | 8.69429 | 98.01527 | 33894 ft | 506 kts | 334° |
| 2026-05-05 17:34 | 8.75728 | 97.98356 | 33885 ft | 506 kts | 334° |
| 2026-05-05 17:34 | 8.80963 | 97.95708 | 33860 ft | 506 kts | 334° |
| 2026-05-05 17:35 | 8.87164 | 97.92585 | 33856 ft | 505 kts | 334° |
| 2026-05-05 17:35 | 8.94383 | 97.88945 | 33850 ft | 507 kts | 334° |
| 2026-05-05 17:36 | 8.99670 | 97.86295 | 33842 ft | 505 kts | 334° |
| 2026-05-05 17:36 | 9.05975 | 97.83126 | 33842 ft | 506 kts | 334° |
| 2026-05-05 17:37 | 9.12269 | 97.79941 | 33833 ft | 506 kts | 334° |
| 2026-05-05 17:37 | 9.18563 | 97.76751 | 33832 ft | 506 kts | 334° |
| 2026-05-05 17:38 | 9.24862 | 97.73571 | 33828 ft | 506 kts | 334° |
| 2026-05-05 17:38 | 9.31155 | 97.70384 | 33823 ft | 505 kts | 334° |
| 2026-05-05 17:39 | 9.37448 | 97.67209 | 33823 ft | 505 kts | 334° |
| 2026-05-05 17:39 | 9.43692 | 97.64045 | 33814 ft | 505 kts | 334° |
| 2026-05-05 17:40 | 9.50020 | 97.60844 | 33815 ft | 505 kts | 334° |
| 2026-05-05 17:40 | 9.56298 | 97.57659 | 33814 ft | 505 kts | 334° |
| 2026-05-05 17:41 | 9.62576 | 97.54479 | 33814 ft | 504 kts | 334° |
| 2026-05-05 17:41 | 9.68812 | 97.51319 | 33813 ft | 505 kts | 334° |
| 2026-05-05 17:42 | 9.75084 | 97.48135 | 33814 ft | 504 kts | 334° |
| 2026-05-05 17:42 | 9.81358 | 97.44957 | 33805 ft | 504 kts | 334° |
| 2026-05-05 17:43 | 9.87637 | 97.41779 | 33804 ft | 504 kts | 334° |
| 2026-05-05 17:43 | 9.93909 | 97.38599 | 33804 ft | 504 kts | 333° |
| 2026-05-05 17:44 | 10.00179 | 97.35405 | 33804 ft | 504 kts | 334° |
| 2026-05-05 17:44 | 10.06384 | 97.32275 | 33785 ft | 504 kts | 334° |
| 2026-05-05 17:45 | 10.12664 | 97.29122 | 33796 ft | 503 kts | 334° |
| 2026-05-05 17:45 | 10.18944 | 97.25961 | 33797 ft | 504 kts | 333° |
| 2026-05-05 17:46 | 10.25227 | 97.22799 | 33795 ft | 504 kts | 334° |
| 2026-05-05 17:46 | 10.31505 | 97.19637 | 33795 ft | 504 kts | 334° |
| 2026-05-05 17:47 | 10.37784 | 97.16478 | 33793 ft | 503 kts | 334° |
| 2026-05-05 17:47 | 10.44057 | 97.13316 | 33794 ft | 503 kts | 333° |
| 2026-05-05 17:48 | 10.50332 | 97.10139 | 33794 ft | 504 kts | 333° |
| 2026-05-05 17:48 | 10.56598 | 97.06965 | 33802 ft | 503 kts | 333° |
| 2026-05-05 17:49 | 10.62862 | 97.03808 | 33804 ft | 502 kts | 333° |
| 2026-05-05 17:49 | 10.69133 | 97.00644 | 33804 ft | 502 kts | 333° |
| 2026-05-05 17:50 | 10.75384 | 96.97477 | 33807 ft | 502 kts | 333° |
| 2026-05-05 17:50 | 10.81648 | 96.94321 | 33804 ft | 502 kts | 333° |
| 2026-05-05 17:51 | 10.87910 | 96.91169 | 33804 ft | 503 kts | 333° |
| 2026-05-05 17:51 | 10.94161 | 96.87997 | 33813 ft | 502 kts | 333° |
| 2026-05-05 17:52 | 11.00095 | 96.84281 | 33814 ft | 502 kts | 321° |
| 2026-05-05 17:52 | 11.05390 | 96.79660 | 33814 ft | 502 kts | 317° |
| 2026-05-05 17:53 | 11.10501 | 96.74824 | 33814 ft | 501 kts | 317° |
| 2026-05-05 17:53 | 11.15598 | 96.69979 | 33819 ft | 501 kts | 317° |
| 2026-05-05 17:54 | 11.20704 | 96.65163 | 33822 ft | 499 kts | 317° |
| 2026-05-05 17:54 | 11.25779 | 96.60394 | 33822 ft | 500 kts | 317° |
| 2026-05-05 17:55 | 11.30897 | 96.55582 | 33824 ft | 500 kts | 317° |
| 2026-05-05 17:55 | 11.36001 | 96.50783 | 33831 ft | 499 kts | 317° |
| 2026-05-05 17:56 | 11.41106 | 96.46009 | 33833 ft | 498 kts | 317° |
| 2026-05-05 17:56 | 11.46204 | 96.41230 | 33832 ft | 498 kts | 317° |
| 2026-05-05 17:57 | 11.51291 | 96.36443 | 33835 ft | 497 kts | 317° |
| 2026-05-05 17:57 | 11.56377 | 96.31670 | 33832 ft | 497 kts | 317° |
| 2026-05-05 17:58 | 11.61457 | 96.26888 | 33841 ft | 497 kts | 317° |
| 2026-05-05 17:58 | 11.66535 | 96.22111 | 33841 ft | 496 kts | 317° |
| 2026-05-05 17:59 | 11.71603 | 96.17335 | 33850 ft | 496 kts | 317° |
| 2026-05-05 17:59 | 11.76678 | 96.12560 | 33851 ft | 497 kts | 317° |
| 2026-05-05 18:00 | 11.81744 | 96.07778 | 33849 ft | 496 kts | 317° |
| 2026-05-05 18:00 | 11.86809 | 96.03004 | 33852 ft | 495 kts | 317° |
| 2026-05-05 18:01 | 11.91853 | 95.98228 | 33851 ft | 494 kts | 317° |
| 2026-05-05 18:01 | 11.96904 | 95.93450 | 33850 ft | 495 kts | 317° |
| 2026-05-05 18:02 | 12.01918 | 95.88708 | 33851 ft | 495 kts | 317° |
| 2026-05-05 18:02 | 12.06971 | 95.83927 | 33860 ft | 495 kts | 317° |
| 2026-05-05 18:03 | 12.12023 | 95.79158 | 33860 ft | 494 kts | 317° |
| 2026-05-05 18:03 | 12.17074 | 95.74383 | 33860 ft | 494 kts | 317° |
| 2026-05-05 18:04 | 12.22117 | 95.69607 | 33860 ft | 495 kts | 317° |
| 2026-05-05 18:04 | 12.27166 | 95.64825 | 33861 ft | 496 kts | 317° |
| 2026-05-05 18:05 | 12.32224 | 95.60019 | 33868 ft | 496 kts | 317° |
| 2026-05-05 18:05 | 12.37280 | 95.55216 | 33869 ft | 497 kts | 317° |
| 2026-05-05 18:06 | 12.42342 | 95.50405 | 33869 ft | 496 kts | 317° |
| 2026-05-05 18:06 | 12.47389 | 95.45610 | 33869 ft | 495 kts | 317° |
| 2026-05-05 18:07 | 12.52444 | 95.40813 | 33870 ft | 495 kts | 317° |
| 2026-05-05 18:07 | 12.57497 | 95.36011 | 33869 ft | 496 kts | 317° |
| 2026-05-05 18:08 | 12.62558 | 95.31196 | 33869 ft | 496 kts | 317° |
| 2026-05-05 18:08 | 12.67602 | 95.26386 | 33884 ft | 496 kts | 317° |
| 2026-05-05 18:09 | 12.72636 | 95.21566 | 33878 ft | 494 kts | 317° |
| 2026-05-05 18:09 | 12.77691 | 95.16784 | 33878 ft | 495 kts | 318° |
| 2026-05-05 18:10 | 12.82745 | 95.11981 | 33878 ft | 495 kts | 317° |
| 2026-05-05 18:10 | 12.87781 | 95.07159 | 33880 ft | 495 kts | 317° |
| 2026-05-05 18:11 | 12.92819 | 95.02339 | 33878 ft | 496 kts | 317° |
| 2026-05-05 18:11 | 12.97850 | 94.97517 | 33877 ft | 495 kts | 318° |
| 2026-05-05 18:12 | 13.02896 | 94.92713 | 33881 ft | 495 kts | 318° |
| 2026-05-05 18:12 | 13.07939 | 94.87899 | 33878 ft | 496 kts | 317° |
| 2026-05-05 18:13 | 13.12968 | 94.83074 | 33879 ft | 495 kts | 317° |
| 2026-05-05 18:13 | 13.18003 | 94.78259 | 33877 ft | 494 kts | 317° |
| 2026-05-05 18:14 | 13.22995 | 94.73480 | 33891 ft | 494 kts | 318° |
| 2026-05-05 18:14 | 13.28048 | 94.68620 | 33886 ft | 494 kts | 317° |
| 2026-05-05 18:15 | 13.33037 | 94.63834 | 33884 ft | 494 kts | 318° |
| 2026-05-05 18:15 | 13.38060 | 94.59029 | 33884 ft | 494 kts | 318° |
| 2026-05-05 18:16 | 13.43081 | 94.54228 | 33884 ft | 493 kts | 318° |
| 2026-05-05 18:16 | 13.48092 | 94.49419 | 33883 ft | 493 kts | 318° |
| 2026-05-05 18:17 | 13.53103 | 94.44598 | 33884 ft | 494 kts | 317° |
| 2026-05-05 18:17 | 13.58110 | 94.39774 | 33894 ft | 493 kts | 318° |
| 2026-05-05 18:18 | 13.63106 | 94.34963 | 33884 ft | 491 kts | 318° |
| 2026-05-05 18:18 | 13.68108 | 94.30149 | 33895 ft | 493 kts | 318° |
| 2026-05-05 18:19 | 13.73118 | 94.25333 | 33886 ft | 493 kts | 318° |
| 2026-05-05 18:19 | 13.78110 | 94.20499 | 33885 ft | 493 kts | 317° |
| 2026-05-05 18:20 | 13.83089 | 94.15667 | 33885 ft | 492 kts | 318° |
| 2026-05-05 18:20 | 13.88079 | 94.10850 | 33885 ft | 492 kts | 318° |
| 2026-05-05 18:21 | 13.92237 | 94.06845 | 33885 ft | 492 kts | 318° |